sensor_id;sensor_type;location;lat;lon;timestamp;P1;durP1;ratioP1;P2;durP2;ratioP2
769;SDS011;368;48.698;9.116;2024-02-21T00:01:27;9.60;;;4.70;;
769;SDS011;368;48.698;9.116;2024-02-21T00:03:53;12.50;;;5.30;;
769;SDS011;368;48.698;9.116;2024-02-21T00:06:20;6.13;;;4.30;;
769;SDS011;368;48.698;9.116;2024-02-21T00:08:47;7.33;;;4.50;;
769;SDS011;368;48.698;9.116;2024-02-21T00:11:15;5.50;;;4.50;;
769;SDS011;368;48.698;9.116;2024-02-21T00:13:42;7.03;;;4.60;;
769;SDS011;368;48.698;9.116;2024-02-21T00:16:08;6.87;;;4.37;;
769;SDS011;368;48.698;9.116;2024-02-21T00:18:35;7.07;;;4.63;;
769;SDS011;368;48.698;9.116;2024-02-21T00:21:02;7.53;;;3.97;;
769;SDS011;368;48.698;9.116;2024-02-21T00:23:29;6.17;;;4.73;;
769;SDS011;368;48.698;9.116;2024-02-21T00:25:56;7.50;;;3.97;;
769;SDS011;368;48.698;9.116;2024-02-21T00:28:24;10.10;;;4.80;;
769;SDS011;368;48.698;9.116;2024-02-21T00:30:51;5.00;;;3.77;;
769;SDS011;368;48.698;9.116;2024-02-21T00:33:18;8.10;;;4.90;;
769;SDS011;368;48.698;9.116;2024-02-21T00:35:45;6.63;;;4.10;;
769;SDS011;368;48.698;9.116;2024-02-21T00:38:12;6.70;;;4.27;;
769;SDS011;368;48.698;9.116;2024-02-21T00:40:38;7.73;;;4.57;;
769;SDS011;368;48.698;9.116;2024-02-21T00:43:05;11.23;;;5.80;;
769;SDS011;368;48.698;9.116;2024-02-21T00:45:33;9.87;;;4.27;;
769;SDS011;368;48.698;9.116;2024-02-21T00:48:00;10.53;;;4.43;;
769;SDS011;368;48.698;9.116;2024-02-21T00:50:27;6.67;;;4.40;;
769;SDS011;368;48.698;9.116;2024-02-21T00:52:54;9.43;;;4.13;;
769;SDS011;368;48.698;9.116;2024-02-21T00:55:20;5.70;;;4.07;;
769;SDS011;368;48.698;9.116;2024-02-21T00:57:47;7.37;;;3.90;;
769;SDS011;368;48.698;9.116;2024-02-21T01:00:14;10.50;;;4.03;;
769;SDS011;368;48.698;9.116;2024-02-21T01:02:43;7.00;;;3.83;;
769;SDS011;368;48.698;9.116;2024-02-21T01:05:10;4.53;;;4.00;;
769;SDS011;368;48.698;9.116;2024-02-21T01:07:36;10.87;;;4.53;;
769;SDS011;368;48.698;9.116;2024-02-21T01:10:04;11.20;;;4.17;;
769;SDS011;368;48.698;9.116;2024-02-21T01:12:31;6.40;;;4.03;;
769;SDS011;368;48.698;9.116;2024-02-21T01:14:58;8.53;;;4.40;;
769;SDS011;368;48.698;9.116;2024-02-21T01:17:25;6.10;;;3.70;;
769;SDS011;368;48.698;9.116;2024-02-21T01:19:53;7.40;;;4.53;;
769;SDS011;368;48.698;9.116;2024-02-21T01:22:19;10.40;;;4.27;;
769;SDS011;368;48.698;9.116;2024-02-21T01:24:46;7.23;;;4.13;;
769;SDS011;368;48.698;9.116;2024-02-21T01:27:13;6.67;;;4.03;;
769;SDS011;368;48.698;9.116;2024-02-21T01:29:40;7.47;;;4.13;;
769;SDS011;368;48.698;9.116;2024-02-21T01:32:06;9.80;;;3.60;;
769;SDS011;368;48.698;9.116;2024-02-21T01:34:33;5.10;;;3.67;;
769;SDS011;368;48.698;9.116;2024-02-21T01:37:01;6.53;;;4.73;;
769;SDS011;368;48.698;9.116;2024-02-21T01:39:29;6.30;;;4.10;;
769;SDS011;368;48.698;9.116;2024-02-21T01:41:56;7.13;;;3.73;;
769;SDS011;368;48.698;9.116;2024-02-21T01:44:23;4.30;;;3.60;;
769;SDS011;368;48.698;9.116;2024-02-21T01:46:50;5.30;;;3.27;;
769;SDS011;368;48.698;9.116;2024-02-21T01:49:17;4.70;;;3.20;;
769;SDS011;368;48.698;9.116;2024-02-21T01:51:44;5.73;;;3.13;;
769;SDS011;368;48.698;9.116;2024-02-21T01:54:13;12.13;;;4.27;;
769;SDS011;368;48.698;9.116;2024-02-21T01:56:40;12.33;;;4.20;;
769;SDS011;368;48.698;9.116;2024-02-21T01:59:06;15.47;;;4.00;;
769;SDS011;368;48.698;9.116;2024-02-21T02:01:34;7.13;;;4.37;;
769;SDS011;368;48.698;9.116;2024-02-21T02:04:01;7.70;;;3.87;;
769;SDS011;368;48.698;9.116;2024-02-21T02:06:30;9.47;;;4.00;;
769;SDS011;368;48.698;9.116;2024-02-21T02:08:57;8.77;;;3.40;;
769;SDS011;368;48.698;9.116;2024-02-21T02:11:25;8.47;;;4.07;;
769;SDS011;368;48.698;9.116;2024-02-21T02:13:52;5.40;;;4.00;;
769;SDS011;368;48.698;9.116;2024-02-21T02:16:19;9.80;;;4.13;;
769;SDS011;368;48.698;9.116;2024-02-21T02:18:46;12.00;;;5.17;;
769;SDS011;368;48.698;9.116;2024-02-21T02:21:13;8.40;;;4.50;;
769;SDS011;368;48.698;9.116;2024-02-21T02:23:50;7.87;;;4.70;;
769;SDS011;368;48.698;9.116;2024-02-21T02:26:17;10.57;;;4.37;;
769;SDS011;368;48.698;9.116;2024-02-21T02:28:44;7.30;;;4.20;;
769;SDS011;368;48.698;9.116;2024-02-21T02:31:11;8.40;;;4.57;;
769;SDS011;368;48.698;9.116;2024-02-21T02:33:38;8.03;;;3.80;;
769;SDS011;368;48.698;9.116;2024-02-21T02:36:04;10.33;;;4.50;;
769;SDS011;368;48.698;9.116;2024-02-21T02:38:31;5.97;;;4.00;;
769;SDS011;368;48.698;9.116;2024-02-21T02:40:59;6.37;;;3.60;;
769;SDS011;368;48.698;9.116;2024-02-21T02:43:26;14.43;;;4.00;;
769;SDS011;368;48.698;9.116;2024-02-21T02:45:53;5.97;;;3.80;;
769;SDS011;368;48.698;9.116;2024-02-21T02:48:20;6.13;;;3.40;;
769;SDS011;368;48.698;9.116;2024-02-21T02:50:47;9.90;;;3.27;;
769;SDS011;368;48.698;9.116;2024-02-21T02:53:14;11.00;;;4.10;;
769;SDS011;368;48.698;9.116;2024-02-21T02:55:41;6.40;;;3.60;;
769;SDS011;368;48.698;9.116;2024-02-21T02:58:09;4.60;;;3.33;;
769;SDS011;368;48.698;9.116;2024-02-21T03:00:36;6.20;;;3.83;;
769;SDS011;368;48.698;9.116;2024-02-21T03:03:04;4.80;;;3.87;;
769;SDS011;368;48.698;9.116;2024-02-21T03:05:31;9.17;;;3.73;;
769;SDS011;368;48.698;9.116;2024-02-21T03:07:58;6.60;;;4.00;;
769;SDS011;368;48.698;9.116;2024-02-21T03:10:24;8.80;;;4.30;;
769;SDS011;368;48.698;9.116;2024-02-21T03:12:51;7.40;;;3.93;;
769;SDS011;368;48.698;9.116;2024-02-21T03:15:20;8.50;;;4.17;;
769;SDS011;368;48.698;9.116;2024-02-21T03:17:46;5.87;;;3.53;;
769;SDS011;368;48.698;9.116;2024-02-21T03:20:13;5.13;;;3.90;;
769;SDS011;368;48.698;9.116;2024-02-21T03:22:40;9.83;;;3.30;;
769;SDS011;368;48.698;9.116;2024-02-21T03:25:08;7.77;;;3.80;;
769;SDS011;368;48.698;9.116;2024-02-21T03:27:35;6.57;;;3.80;;
769;SDS011;368;48.698;9.116;2024-02-21T03:30:02;7.20;;;3.70;;
769;SDS011;368;48.698;9.116;2024-02-21T03:32:31;6.40;;;3.40;;
769;SDS011;368;48.698;9.116;2024-02-21T03:35:00;11.83;;;4.53;;
769;SDS011;368;48.698;9.116;2024-02-21T03:37:27;4.70;;;3.77;;
769;SDS011;368;48.698;9.116;2024-02-21T03:39:54;7.70;;;3.40;;
769;SDS011;368;48.698;9.116;2024-02-21T03:42:21;6.17;;;3.70;;
769;SDS011;368;48.698;9.116;2024-02-21T03:44:47;8.20;;;4.30;;
769;SDS011;368;48.698;9.116;2024-02-21T03:47:14;6.10;;;4.30;;
769;SDS011;368;48.698;9.116;2024-02-21T03:49:42;6.23;;;3.67;;
769;SDS011;368;48.698;9.116;2024-02-21T03:52:09;5.30;;;3.57;;
769;SDS011;368;48.698;9.116;2024-02-21T03:54:36;14.60;;;4.83;;
769;SDS011;368;48.698;9.116;2024-02-21T03:57:04;5.47;;;3.73;;
769;SDS011;368;48.698;9.116;2024-02-21T03:59:31;6.30;;;3.60;;
769;SDS011;368;48.698;9.116;2024-02-21T04:01:58;11.43;;;4.43;;
769;SDS011;368;48.698;9.116;2024-02-21T04:04:25;6.60;;;3.90;;
769;SDS011;368;48.698;9.116;2024-02-21T04:06:53;3.83;;;3.07;;
769;SDS011;368;48.698;9.116;2024-02-21T04:09:20;5.03;;;3.40;;
769;SDS011;368;48.698;9.116;2024-02-21T04:11:47;8.17;;;4.03;;
769;SDS011;368;48.698;9.116;2024-02-21T04:14:13;9.07;;;3.50;;
769;SDS011;368;48.698;9.116;2024-02-21T04:16:40;7.70;;;4.67;;
769;SDS011;368;48.698;9.116;2024-02-21T04:19:07;7.60;;;3.97;;
769;SDS011;368;48.698;9.116;2024-02-21T04:21:34;6.83;;;3.77;;
769;SDS011;368;48.698;9.116;2024-02-21T04:24:03;8.07;;;3.40;;
769;SDS011;368;48.698;9.116;2024-02-21T04:26:30;5.70;;;3.60;;
769;SDS011;368;48.698;9.116;2024-02-21T04:28:57;6.07;;;3.20;;
769;SDS011;368;48.698;9.116;2024-02-21T04:31:24;10.30;;;5.37;;
769;SDS011;368;48.698;9.116;2024-02-21T04:33:50;6.13;;;3.00;;
769;SDS011;368;48.698;9.116;2024-02-21T04:36:17;5.97;;;2.90;;
769;SDS011;368;48.698;9.116;2024-02-21T04:38:44;3.37;;;3.07;;
769;SDS011;368;48.698;9.116;2024-02-21T04:41:13;7.83;;;3.10;;
769;SDS011;368;48.698;9.116;2024-02-21T04:43:39;6.43;;;3.50;;
769;SDS011;368;48.698;9.116;2024-02-21T04:46:06;5.70;;;3.67;;
769;SDS011;368;48.698;9.116;2024-02-21T04:48:34;5.70;;;3.27;;
769;SDS011;368;48.698;9.116;2024-02-21T04:51:01;6.80;;;3.70;;
769;SDS011;368;48.698;9.116;2024-02-21T04:53:28;7.03;;;3.40;;
769;SDS011;368;48.698;9.116;2024-02-21T04:55:55;3.30;;;2.80;;
769;SDS011;368;48.698;9.116;2024-02-21T04:58:23;5.93;;;3.60;;
769;SDS011;368;48.698;9.116;2024-02-21T05:00:50;5.10;;;4.07;;
769;SDS011;368;48.698;9.116;2024-02-21T05:03:18;6.00;;;4.73;;
769;SDS011;368;48.698;9.116;2024-02-21T05:05:45;7.63;;;4.20;;
769;SDS011;368;48.698;9.116;2024-02-21T05:08:12;9.43;;;5.10;;
769;SDS011;368;48.698;9.116;2024-02-21T05:10:38;4.20;;;3.80;;
769;SDS011;368;48.698;9.116;2024-02-21T05:13:05;7.10;;;3.90;;
769;SDS011;368;48.698;9.116;2024-02-21T05:15:33;5.37;;;4.60;;
769;SDS011;368;48.698;9.116;2024-02-21T05:18:00;9.40;;;5.07;;
769;SDS011;368;48.698;9.116;2024-02-21T05:20:27;6.47;;;4.10;;
769;SDS011;368;48.698;9.116;2024-02-21T05:22:55;5.60;;;3.87;;
769;SDS011;368;48.698;9.116;2024-02-21T05:25:21;5.73;;;3.50;;
769;SDS011;368;48.698;9.116;2024-02-21T05:27:50;4.70;;;4.23;;
769;SDS011;368;48.698;9.116;2024-02-21T05:30:18;5.17;;;3.83;;
769;SDS011;368;48.698;9.116;2024-02-21T05:32:46;6.97;;;2.80;;
769;SDS011;368;48.698;9.116;2024-02-21T05:35:13;9.70;;;2.90;;
769;SDS011;368;48.698;9.116;2024-02-21T05:37:40;3.23;;;2.30;;
769;SDS011;368;48.698;9.116;2024-02-21T05:40:07;3.90;;;2.90;;
769;SDS011;368;48.698;9.116;2024-02-21T05:42:35;7.80;;;3.40;;
769;SDS011;368;48.698;9.116;2024-02-21T05:45:02;3.53;;;2.97;;
769;SDS011;368;48.698;9.116;2024-02-21T05:47:29;4.97;;;3.60;;
769;SDS011;368;48.698;9.116;2024-02-21T05:49:57;8.37;;;3.37;;
769;SDS011;368;48.698;9.116;2024-02-21T05:52:23;5.90;;;3.30;;
769;SDS011;368;48.698;9.116;2024-02-21T05:54:50;5.70;;;3.47;;
769;SDS011;368;48.698;9.116;2024-02-21T05:57:17;8.60;;;3.87;;
769;SDS011;368;48.698;9.116;2024-02-21T05:59:44;6.83;;;4.93;;
769;SDS011;368;48.698;9.116;2024-02-21T06:02:11;6.27;;;3.83;;
769;SDS011;368;48.698;9.116;2024-02-21T06:04:38;5.93;;;3.53;;
769;SDS011;368;48.698;9.116;2024-02-21T06:07:06;3.60;;;2.80;;
769;SDS011;368;48.698;9.116;2024-02-21T06:09:33;5.40;;;2.87;;
769;SDS011;368;48.698;9.116;2024-02-21T06:12:00;5.20;;;3.50;;
769;SDS011;368;48.698;9.116;2024-02-21T06:14:27;4.80;;;3.73;;
769;SDS011;368;48.698;9.116;2024-02-21T06:16:53;5.43;;;3.87;;
769;SDS011;368;48.698;9.116;2024-02-21T06:19:20;5.90;;;3.67;;
769;SDS011;368;48.698;9.116;2024-02-21T06:21:47;8.83;;;3.80;;
769;SDS011;368;48.698;9.116;2024-02-21T06:24:15;9.27;;;3.83;;
769;SDS011;368;48.698;9.116;2024-02-21T06:26:42;6.43;;;3.30;;
769;SDS011;368;48.698;9.116;2024-02-21T06:29:08;4.60;;;3.13;;
769;SDS011;368;48.698;9.116;2024-02-21T06:31:35;5.97;;;3.27;;
769;SDS011;368;48.698;9.116;2024-02-21T06:34:02;7.80;;;4.23;;
769;SDS011;368;48.698;9.116;2024-02-21T06:36:29;12.33;;;3.80;;
769;SDS011;368;48.698;9.116;2024-02-21T06:38:56;8.67;;;4.50;;
769;SDS011;368;48.698;9.116;2024-02-21T06:41:24;8.37;;;4.40;;
769;SDS011;368;48.698;9.116;2024-02-21T06:43:51;7.83;;;4.37;;
769;SDS011;368;48.698;9.116;2024-02-21T06:46:24;5.40;;;3.60;;
769;SDS011;368;48.698;9.116;2024-02-21T06:48:51;5.50;;;4.40;;
769;SDS011;368;48.698;9.116;2024-02-21T06:51:18;8.73;;;7.40;;
769;SDS011;368;48.698;9.116;2024-02-21T06:53:44;7.03;;;4.60;;
769;SDS011;368;48.698;9.116;2024-02-21T06:56:11;5.37;;;3.40;;
769;SDS011;368;48.698;9.116;2024-02-21T06:58:39;5.00;;;3.53;;
769;SDS011;368;48.698;9.116;2024-02-21T07:01:06;7.57;;;3.90;;
769;SDS011;368;48.698;9.116;2024-02-21T07:03:33;6.47;;;4.13;;
769;SDS011;368;48.698;9.116;2024-02-21T07:06:00;7.50;;;4.43;;
769;SDS011;368;48.698;9.116;2024-02-21T07:08:27;7.27;;;3.53;;
769;SDS011;368;48.698;9.116;2024-02-21T07:10:53;6.43;;;3.20;;
769;SDS011;368;48.698;9.116;2024-02-21T07:13:20;8.63;;;2.87;;
769;SDS011;368;48.698;9.116;2024-02-21T07:15:50;4.67;;;3.00;;
769;SDS011;368;48.698;9.116;2024-02-21T07:18:16;6.17;;;3.00;;
769;SDS011;368;48.698;9.116;2024-02-21T07:20:43;7.17;;;3.20;;
769;SDS011;368;48.698;9.116;2024-02-21T07:23:10;7.30;;;3.00;;
769;SDS011;368;48.698;9.116;2024-02-21T07:25:37;4.33;;;3.60;;
769;SDS011;368;48.698;9.116;2024-02-21T07:28:04;7.53;;;3.80;;
769;SDS011;368;48.698;9.116;2024-02-21T07:30:33;5.80;;;3.30;;
769;SDS011;368;48.698;9.116;2024-02-21T07:33:01;7.67;;;3.10;;
769;SDS011;368;48.698;9.116;2024-02-21T07:35:28;5.93;;;3.40;;
769;SDS011;368;48.698;9.116;2024-02-21T07:37:55;5.57;;;3.30;;
769;SDS011;368;48.698;9.116;2024-02-21T07:40:22;6.10;;;3.50;;
769;SDS011;368;48.698;9.116;2024-02-21T07:42:49;7.83;;;3.07;;
769;SDS011;368;48.698;9.116;2024-02-21T07:45:16;3.90;;;2.60;;
769;SDS011;368;48.698;9.116;2024-02-21T07:47:43;6.00;;;2.83;;
769;SDS011;368;48.698;9.116;2024-02-21T07:50:11;6.07;;;3.00;;
769;SDS011;368;48.698;9.116;2024-02-21T07:52:38;3.80;;;2.60;;
769;SDS011;368;48.698;9.116;2024-02-21T07:55:08;5.93;;;2.53;;
769;SDS011;368;48.698;9.116;2024-02-21T07:57:35;4.83;;;2.53;;
769;SDS011;368;48.698;9.116;2024-02-21T08:00:02;6.47;;;3.30;;
769;SDS011;368;48.698;9.116;2024-02-21T08:02:30;4.70;;;2.90;;
769;SDS011;368;48.698;9.116;2024-02-21T08:04:56;7.50;;;3.00;;
769;SDS011;368;48.698;9.116;2024-02-21T08:07:24;5.47;;;3.17;;
769;SDS011;368;48.698;9.116;2024-02-21T08:09:54;10.37;;;6.10;;
769;SDS011;368;48.698;9.116;2024-02-21T08:12:20;5.07;;;3.10;;
769;SDS011;368;48.698;9.116;2024-02-21T08:14:47;4.40;;;2.73;;
769;SDS011;368;48.698;9.116;2024-02-21T08:17:14;8.50;;;3.07;;
769;SDS011;368;48.698;9.116;2024-02-21T08:19:41;9.23;;;3.87;;
769;SDS011;368;48.698;9.116;2024-02-21T08:22:07;5.87;;;2.63;;
769;SDS011;368;48.698;9.116;2024-02-21T08:24:35;4.47;;;2.83;;
769;SDS011;368;48.698;9.116;2024-02-21T08:27:03;5.63;;;2.97;;
769;SDS011;368;48.698;9.116;2024-02-21T08:29:31;6.97;;;3.10;;
769;SDS011;368;48.698;9.116;2024-02-21T08:31:57;5.83;;;3.10;;
769;SDS011;368;48.698;9.116;2024-02-21T08:34:24;9.93;;;3.17;;
769;SDS011;368;48.698;9.116;2024-02-21T08:36:51;5.70;;;3.80;;
769;SDS011;368;48.698;9.116;2024-02-21T08:39:18;4.10;;;3.00;;
769;SDS011;368;48.698;9.116;2024-02-21T08:41:46;7.93;;;3.00;;
769;SDS011;368;48.698;9.116;2024-02-21T08:44:13;6.13;;;2.70;;
769;SDS011;368;48.698;9.116;2024-02-21T08:46:40;8.10;;;3.13;;
769;SDS011;368;48.698;9.116;2024-02-21T08:49:06;6.90;;;2.43;;
769;SDS011;368;48.698;9.116;2024-02-21T08:51:33;6.57;;;3.10;;
769;SDS011;368;48.698;9.116;2024-02-21T08:54:00;4.70;;;3.13;;
769;SDS011;368;48.698;9.116;2024-02-21T08:56:29;4.47;;;3.20;;
769;SDS011;368;48.698;9.116;2024-02-21T08:58:58;6.47;;;3.00;;
769;SDS011;368;48.698;9.116;2024-02-21T09:01:26;6.97;;;3.00;;
769;SDS011;368;48.698;9.116;2024-02-21T09:03:53;3.57;;;2.47;;
769;SDS011;368;48.698;9.116;2024-02-21T09:06:21;3.23;;;2.37;;
769;SDS011;368;48.698;9.116;2024-02-21T09:08:48;5.33;;;2.43;;
769;SDS011;368;48.698;9.116;2024-02-21T09:11:15;5.47;;;2.67;;
769;SDS011;368;48.698;9.116;2024-02-21T09:13:42;8.60;;;3.47;;
769;SDS011;368;48.698;9.116;2024-02-21T09:16:10;5.43;;;2.80;;
769;SDS011;368;48.698;9.116;2024-02-21T09:18:37;3.27;;;1.97;;
769;SDS011;368;48.698;9.116;2024-02-21T09:21:04;4.63;;;2.60;;
769;SDS011;368;48.698;9.116;2024-02-21T09:23:30;6.60;;;2.60;;
769;SDS011;368;48.698;9.116;2024-02-21T09:25:57;3.17;;;2.43;;
769;SDS011;368;48.698;9.116;2024-02-21T09:28:25;3.93;;;2.03;;
769;SDS011;368;48.698;9.116;2024-02-21T09:30:52;5.00;;;2.53;;
769;SDS011;368;48.698;9.116;2024-02-21T09:33:20;6.50;;;2.97;;
769;SDS011;368;48.698;9.116;2024-02-21T09:35:47;5.40;;;2.70;;
769;SDS011;368;48.698;9.116;2024-02-21T09:38:14;3.23;;;2.30;;
769;SDS011;368;48.698;9.116;2024-02-21T09:40:41;2.93;;;2.00;;
769;SDS011;368;48.698;9.116;2024-02-21T09:43:08;8.10;;;3.43;;
769;SDS011;368;48.698;9.116;2024-02-21T09:45:35;3.60;;;2.97;;
769;SDS011;368;48.698;9.116;2024-02-21T09:48:12;4.03;;;1.80;;
769;SDS011;368;48.698;9.116;2024-02-21T09:51:01;6.40;;;2.93;;
769;SDS011;368;48.698;9.116;2024-02-21T09:53:29;3.77;;;1.87;;
769;SDS011;368;48.698;9.116;2024-02-21T09:55:58;3.20;;;2.07;;
769;SDS011;368;48.698;9.116;2024-02-21T09:58:26;3.27;;;1.90;;
769;SDS011;368;48.698;9.116;2024-02-21T10:00:53;7.50;;;3.40;;
769;SDS011;368;48.698;9.116;2024-02-21T10:03:20;4.87;;;2.60;;
769;SDS011;368;48.698;9.116;2024-02-21T10:05:48;4.93;;;2.13;;
769;SDS011;368;48.698;9.116;2024-02-21T10:08:16;4.33;;;2.13;;
769;SDS011;368;48.698;9.116;2024-02-21T10:10:43;5.43;;;2.47;;
769;SDS011;368;48.698;9.116;2024-02-21T10:13:10;3.93;;;2.10;;
769;SDS011;368;48.698;9.116;2024-02-21T10:15:49;5.70;;;2.10;;
769;SDS011;368;48.698;9.116;2024-02-21T10:18:27;4.40;;;1.93;;
769;SDS011;368;48.698;9.116;2024-02-21T10:21:00;3.60;;;2.30;;
769;SDS011;368;48.698;9.116;2024-02-21T10:23:40;7.60;;;2.23;;
769;SDS011;368;48.698;9.116;2024-02-21T10:26:11;4.27;;;2.00;;
769;SDS011;368;48.698;9.116;2024-02-21T10:28:38;7.80;;;2.80;;
769;SDS011;368;48.698;9.116;2024-02-21T10:31:07;6.90;;;2.37;;
769;SDS011;368;48.698;9.116;2024-02-21T10:33:35;6.50;;;2.33;;
769;SDS011;368;48.698;9.116;2024-02-21T10:36:10;5.50;;;1.90;;
769;SDS011;368;48.698;9.116;2024-02-21T10:38:37;5.10;;;1.80;;
769;SDS011;368;48.698;9.116;2024-02-21T10:41:04;3.83;;;2.03;;
769;SDS011;368;48.698;9.116;2024-02-21T10:43:33;4.17;;;2.10;;
769;SDS011;368;48.698;9.116;2024-02-21T10:46:05;3.97;;;1.90;;
769;SDS011;368;48.698;9.116;2024-02-21T10:48:35;3.47;;;1.80;;
769;SDS011;368;48.698;9.116;2024-02-21T10:51:12;5.80;;;1.67;;
769;SDS011;368;48.698;9.116;2024-02-21T10:53:44;3.73;;;2.00;;
769;SDS011;368;48.698;9.116;2024-02-21T10:56:15;4.70;;;1.83;;
769;SDS011;368;48.698;9.116;2024-02-21T10:58:48;3.90;;;2.30;;
769;SDS011;368;48.698;9.116;2024-02-21T11:01:15;3.97;;;1.80;;
769;SDS011;368;48.698;9.116;2024-02-21T11:03:44;5.83;;;2.10;;
769;SDS011;368;48.698;9.116;2024-02-21T11:06:14;2.73;;;1.63;;
769;SDS011;368;48.698;9.116;2024-02-21T11:08:42;4.50;;;1.70;;
769;SDS011;368;48.698;9.116;2024-02-21T11:11:11;2.30;;;1.43;;
769;SDS011;368;48.698;9.116;2024-02-21T11:13:42;2.97;;;1.67;;
769;SDS011;368;48.698;9.116;2024-02-21T11:16:11;2.80;;;1.60;;
769;SDS011;368;48.698;9.116;2024-02-21T11:18:47;3.80;;;1.60;;
769;SDS011;368;48.698;9.116;2024-02-21T11:21:15;3.87;;;1.70;;
769;SDS011;368;48.698;9.116;2024-02-21T11:23:42;3.80;;;1.53;;
769;SDS011;368;48.698;9.116;2024-02-21T11:26:09;2.23;;;1.50;;
769;SDS011;368;48.698;9.116;2024-02-21T11:28:36;3.00;;;2.77;;
769;SDS011;368;48.698;9.116;2024-02-21T11:31:06;5.40;;;1.60;;
769;SDS011;368;48.698;9.116;2024-02-21T11:33:35;4.00;;;1.70;;
769;SDS011;368;48.698;9.116;2024-02-21T11:36:05;1.93;;;1.27;;
769;SDS011;368;48.698;9.116;2024-02-21T11:38:33;2.93;;;1.60;;
769;SDS011;368;48.698;9.116;2024-02-21T11:41:00;2.83;;;1.93;;
769;SDS011;368;48.698;9.116;2024-02-21T11:43:27;3.90;;;1.67;;
769;SDS011;368;48.698;9.116;2024-02-21T11:45:58;2.90;;;1.60;;
769;SDS011;368;48.698;9.116;2024-02-21T11:48:26;3.03;;;1.47;;
769;SDS011;368;48.698;9.116;2024-02-21T11:50:53;2.23;;;1.40;;
769;SDS011;368;48.698;9.116;2024-02-21T11:53:21;2.90;;;1.60;;
769;SDS011;368;48.698;9.116;2024-02-21T11:55:49;2.23;;;1.23;;
769;SDS011;368;48.698;9.116;2024-02-21T11:58:16;4.23;;;1.60;;
769;SDS011;368;48.698;9.116;2024-02-21T12:00:43;1.90;;;1.50;;
769;SDS011;368;48.698;9.116;2024-02-21T12:03:10;2.20;;;1.00;;
769;SDS011;368;48.698;9.116;2024-02-21T12:05:36;4.60;;;1.30;;
769;SDS011;368;48.698;9.116;2024-02-21T12:08:03;2.87;;;1.70;;
769;SDS011;368;48.698;9.116;2024-02-21T12:10:31;2.97;;;1.40;;
769;SDS011;368;48.698;9.116;2024-02-21T12:13:06;3.10;;;1.67;;
769;SDS011;368;48.698;9.116;2024-02-21T12:15:34;3.17;;;1.77;;
769;SDS011;368;48.698;9.116;2024-02-21T12:18:00;2.03;;;1.33;;
769;SDS011;368;48.698;9.116;2024-02-21T12:20:27;1.50;;;1.27;;
769;SDS011;368;48.698;9.116;2024-02-21T12:22:55;4.90;;;1.33;;
769;SDS011;368;48.698;9.116;2024-02-21T12:25:23;4.40;;;1.60;;
769;SDS011;368;48.698;9.116;2024-02-21T12:27:51;6.63;;;1.70;;
769;SDS011;368;48.698;9.116;2024-02-21T12:30:20;2.90;;;1.60;;
769;SDS011;368;48.698;9.116;2024-02-21T12:32:47;1.80;;;1.33;;
769;SDS011;368;48.698;9.116;2024-02-21T12:35:14;1.90;;;1.13;;
769;SDS011;368;48.698;9.116;2024-02-21T12:37:42;1.47;;;0.93;;
769;SDS011;368;48.698;9.116;2024-02-21T12:40:10;2.20;;;1.00;;
769;SDS011;368;48.698;9.116;2024-02-21T12:42:38;1.87;;;1.10;;
769;SDS011;368;48.698;9.116;2024-02-21T12:45:08;1.83;;;1.20;;
769;SDS011;368;48.698;9.116;2024-02-21T12:47:37;2.40;;;1.70;;
769;SDS011;368;48.698;9.116;2024-02-21T12:50:05;1.07;;;0.90;;
769;SDS011;368;48.698;9.116;2024-02-21T12:52:32;2.50;;;1.20;;
769;SDS011;368;48.698;9.116;2024-02-21T12:54:59;5.70;;;1.43;;
769;SDS011;368;48.698;9.116;2024-02-21T12:57:26;1.80;;;1.37;;
769;SDS011;368;48.698;9.116;2024-02-21T12:59:52;3.37;;;1.30;;
769;SDS011;368;48.698;9.116;2024-02-21T13:02:19;2.47;;;1.50;;
769;SDS011;368;48.698;9.116;2024-02-21T13:04:47;2.63;;;1.00;;
769;SDS011;368;48.698;9.116;2024-02-21T13:07:14;2.70;;;1.53;;
769;SDS011;368;48.698;9.116;2024-02-21T13:09:41;2.90;;;1.43;;
769;SDS011;368;48.698;9.116;2024-02-21T13:12:08;1.57;;;1.13;;
769;SDS011;368;48.698;9.116;2024-02-21T13:14:35;3.13;;;0.90;;
769;SDS011;368;48.698;9.116;2024-02-21T13:17:03;3.17;;;1.00;;
769;SDS011;368;48.698;9.116;2024-02-21T13:19:30;2.13;;;0.90;;
769;SDS011;368;48.698;9.116;2024-02-21T13:21:59;2.90;;;1.03;;
769;SDS011;368;48.698;9.116;2024-02-21T13:24:27;2.77;;;1.07;;
769;SDS011;368;48.698;9.116;2024-02-21T13:26:54;3.17;;;1.30;;
769;SDS011;368;48.698;9.116;2024-02-21T13:29:20;3.33;;;1.03;;
769;SDS011;368;48.698;9.116;2024-02-21T13:31:47;3.80;;;1.20;;
769;SDS011;368;48.698;9.116;2024-02-21T13:34:14;2.87;;;1.07;;
769;SDS011;368;48.698;9.116;2024-02-21T13:36:42;3.03;;;1.43;;
769;SDS011;368;48.698;9.116;2024-02-21T13:39:10;3.37;;;1.30;;
769;SDS011;368;48.698;9.116;2024-02-21T13:41:40;2.00;;;0.80;;
769;SDS011;368;48.698;9.116;2024-02-21T13:44:07;1.93;;;1.03;;
769;SDS011;368;48.698;9.116;2024-02-21T13:46:35;1.20;;;0.90;;
769;SDS011;368;48.698;9.116;2024-02-21T13:49:03;1.27;;;0.90;;
769;SDS011;368;48.698;9.116;2024-02-21T13:51:32;1.13;;;0.80;;
769;SDS011;368;48.698;9.116;2024-02-21T13:54:01;5.30;;;1.03;;
769;SDS011;368;48.698;9.116;2024-02-21T13:56:29;2.37;;;1.10;;
769;SDS011;368;48.698;9.116;2024-02-21T13:58:57;2.27;;;1.27;;
769;SDS011;368;48.698;9.116;2024-02-21T14:01:24;3.03;;;1.37;;
769;SDS011;368;48.698;9.116;2024-02-21T14:03:51;2.20;;;1.33;;
769;SDS011;368;48.698;9.116;2024-02-21T14:06:18;3.17;;;1.53;;
769;SDS011;368;48.698;9.116;2024-02-21T14:08:45;5.83;;;3.00;;
769;SDS011;368;48.698;9.116;2024-02-21T14:11:12;1.93;;;1.73;;
769;SDS011;368;48.698;9.116;2024-02-21T14:13:41;3.00;;;2.80;;
769;SDS011;368;48.698;9.116;2024-02-21T14:16:09;2.30;;;1.50;;
769;SDS011;368;48.698;9.116;2024-02-21T14:18:38;2.63;;;1.70;;
769;SDS011;368;48.698;9.116;2024-02-21T14:21:06;4.73;;;2.87;;
769;SDS011;368;48.698;9.116;2024-02-21T14:23:33;3.47;;;1.20;;
769;SDS011;368;48.698;9.116;2024-02-21T14:25:59;1.73;;;1.20;;
769;SDS011;368;48.698;9.116;2024-02-21T14:28:27;2.40;;;1.70;;
769;SDS011;368;48.698;9.116;2024-02-21T14:30:55;1.80;;;1.50;;
769;SDS011;368;48.698;9.116;2024-02-21T14:33:22;1.97;;;1.10;;
769;SDS011;368;48.698;9.116;2024-02-21T14:35:50;2.10;;;1.37;;
769;SDS011;368;48.698;9.116;2024-02-21T14:38:17;4.27;;;1.53;;
769;SDS011;368;48.698;9.116;2024-02-21T14:40:45;2.70;;;1.30;;
769;SDS011;368;48.698;9.116;2024-02-21T14:43:12;2.30;;;1.47;;
769;SDS011;368;48.698;9.116;2024-02-21T14:45:38;2.60;;;1.10;;
769;SDS011;368;48.698;9.116;2024-02-21T14:48:07;4.10;;;1.53;;
769;SDS011;368;48.698;9.116;2024-02-21T14:50:34;1.47;;;1.37;;
769;SDS011;368;48.698;9.116;2024-02-21T14:53:01;4.03;;;1.40;;
769;SDS011;368;48.698;9.116;2024-02-21T14:55:27;2.60;;;1.83;;
769;SDS011;368;48.698;9.116;2024-02-21T14:57:55;2.70;;;1.43;;
769;SDS011;368;48.698;9.116;2024-02-21T15:00:21;1.80;;;1.37;;
769;SDS011;368;48.698;9.116;2024-02-21T15:02:54;3.23;;;2.70;;
769;SDS011;368;48.698;9.116;2024-02-21T15:05:23;1.53;;;1.43;;
769;SDS011;368;48.698;9.116;2024-02-21T15:07:50;3.27;;;1.40;;
769;SDS011;368;48.698;9.116;2024-02-21T15:10:17;3.67;;;1.50;;
769;SDS011;368;48.698;9.116;2024-02-21T15:12:44;3.43;;;1.63;;
769;SDS011;368;48.698;9.116;2024-02-21T15:15:11;2.30;;;1.90;;
769;SDS011;368;48.698;9.116;2024-02-21T15:17:38;2.53;;;1.53;;
769;SDS011;368;48.698;9.116;2024-02-21T15:20:05;4.37;;;3.60;;
769;SDS011;368;48.698;9.116;2024-02-21T15:22:34;4.80;;;3.33;;
769;SDS011;368;48.698;9.116;2024-02-21T15:25:01;2.57;;;1.60;;
769;SDS011;368;48.698;9.116;2024-02-21T15:27:30;3.23;;;2.60;;
769;SDS011;368;48.698;9.116;2024-02-21T15:29:57;3.00;;;2.70;;
769;SDS011;368;48.698;9.116;2024-02-21T15:32:24;7.07;;;6.07;;
769;SDS011;368;48.698;9.116;2024-02-21T15:34:52;5.63;;;4.20;;
769;SDS011;368;48.698;9.116;2024-02-21T15:37:19;4.13;;;3.70;;
769;SDS011;368;48.698;9.116;2024-02-21T15:39:47;7.47;;;6.33;;
769;SDS011;368;48.698;9.116;2024-02-21T15:42:14;21.67;;;19.23;;
769;SDS011;368;48.698;9.116;2024-02-21T15:44:41;12.40;;;7.93;;
769;SDS011;368;48.698;9.116;2024-02-21T15:47:07;4.60;;;2.50;;